createdAt,value
2023-06-11T00:01:28.539Z,101252.81
2023-06-11T00:03:56.246Z,101255.75
2023-06-11T00:06:24.550Z,101254.66
2023-06-11T00:08:53.962Z,101255.16
2023-06-11T00:11:22.920Z,101256.88
2023-06-11T00:13:51.362Z,101260.81
2023-06-11T00:16:18.493Z,101250.91
2023-06-11T00:18:46.223Z,101252.13
2023-06-11T00:21:15.313Z,101246.44
2023-06-11T00:23:42.496Z,101237.88
2023-06-11T00:26:09.747Z,101257.91
2023-06-11T00:28:37.736Z,101259.41
2023-06-11T00:31:05.106Z,101266.63
2023-06-11T00:33:32.209Z,101253.94
2023-06-11T00:35:59.506Z,101255.66
2023-06-11T00:38:26.465Z,101254.13
2023-06-11T00:40:53.503Z,101232.72
2023-06-11T00:43:24.216Z,101250.34
2023-06-11T00:45:52.662Z,101248.59
2023-06-11T00:48:21.205Z,101234.19
2023-06-11T00:50:52.689Z,101256.09
2023-06-11T00:53:22.911Z,101254.84
2023-06-11T00:55:49.964Z,101250.59
2023-06-11T00:58:18.433Z,101251.59
2023-06-11T01:00:50.522Z,101249.53
2023-06-11T01:03:27.947Z,101250.47
2023-06-11T01:06:12.643Z,101244.13
2023-06-11T01:08:41.384Z,101219.75
2023-06-11T01:11:18.968Z,101211.56
2023-06-11T01:13:46.792Z,101239.16
2023-06-11T01:16:21.986Z,101220.59
2023-06-11T01:19:04.467Z,101249.06
2023-06-11T01:21:44.297Z,101246.13
2023-06-11T01:24:22.912Z,101224.44
2023-06-11T01:27:23.447Z,101255.09
2023-06-11T01:29:51.224Z,101247.88
2023-06-11T01:32:25.007Z,101251.78
2023-06-11T01:35:02.347Z,101251.44
2023-06-11T01:37:34.078Z,101256.34
2023-06-11T01:40:01.793Z,101252.75
2023-06-11T01:42:41.716Z,101252.75
2023-06-11T01:45:09.590Z,101254.47
2023-06-11T01:47:38.059Z,101256.56
2023-06-11T01:50:06.856Z,101245.50
2023-06-11T01:52:33.805Z,101252.09
2023-06-11T01:55:01.348Z,101252.28
2023-06-11T01:57:28.333Z,101251.91
2023-06-11T01:59:55.384Z,101256.44
2023-06-11T02:02:22.421Z,101253.88
2023-06-11T02:04:49.378Z,101253.00
2023-06-11T02:07:16.470Z,101257.78
2023-06-11T02:09:43.507Z,101247.66
2023-06-11T02:12:10.607Z,101257.78
2023-06-11T02:14:37.593Z,101257.78
2023-06-11T02:17:04.887Z,101239.94
2023-06-11T02:19:35.691Z,101261.38
2023-06-11T02:22:02.673Z,101257.94
2023-06-11T02:24:29.660Z,101268.78
2023-06-11T02:26:56.668Z,101264.75
2023-06-11T02:29:23.601Z,101264.28
2023-06-11T02:31:50.731Z,101258.75
2023-06-11T02:34:18.213Z,101251.44
2023-06-11T02:36:49.262Z,101238.50
2023-06-11T02:39:16.307Z,101260.56
2023-06-11T02:41:44.775Z,101262.03
2023-06-11T02:44:11.752Z,101264.78
2023-06-11T02:46:38.817Z,101261.34
2023-06-11T02:49:06.563Z,101263.34
2023-06-11T02:51:33.526Z,101235.13
2023-06-11T02:54:00.545Z,101233.50
2023-06-11T02:56:27.677Z,101264.66
2023-06-11T02:58:54.605Z,101269.13
2023-06-11T03:01:21.684Z,101260.38
2023-06-11T03:03:48.875Z,101269.41
2023-06-11T03:06:22.066Z,101268.72
2023-06-11T03:08:49.374Z,101245.03
2023-06-11T03:11:20.034Z,101254.47
2023-06-11T03:13:48.105Z,101243.03
2023-06-11T03:16:15.539Z,101250.63
2023-06-11T03:18:43.999Z,101277.13
2023-06-11T03:21:11.978Z,101273.31
2023-06-11T03:23:39.203Z,101272.69
2023-06-11T03:26:06.326Z,101270.59
2023-06-11T03:28:39.668Z,101265.25
2023-06-11T03:31:07.037Z,101255.28
2023-06-11T03:33:34.095Z,101275.00
2023-06-11T03:36:01.106Z,101277.50
2023-06-11T03:38:28.128Z,101284.81
2023-06-11T03:40:55.727Z,101270.78
2023-06-11T03:43:29.875Z,101265.78
2023-06-11T03:45:56.904Z,101234.34
2023-06-11T03:48:23.899Z,101274.72
2023-06-11T03:50:50.972Z,101270.25
2023-06-11T03:53:17.936Z,101276.44
2023-06-11T03:55:44.993Z,101274.88
2023-06-11T03:58:12.402Z,101224.91
2023-06-11T04:00:40.145Z,101272.97
2023-06-11T04:03:07.506Z,101271.41
2023-06-11T04:05:37.278Z,101275.06
2023-06-11T04:08:05.681Z,101267.28
2023-06-11T04:10:33.419Z,101280.78
2023-06-11T04:13:00.617Z,101278.50
2023-06-11T04:15:27.833Z,101271.06
2023-06-11T04:17:56.817Z,101275.31
2023-06-11T04:20:23.888Z,101277.88
2023-06-11T04:22:52.348Z,101249.59
2023-06-11T04:25:19.305Z,101276.72
2023-06-11T04:27:48.299Z,101280.44
2023-06-11T04:30:15.913Z,101290.34
2023-06-11T04:32:46.010Z,101285.59
2023-06-11T04:35:16.498Z,101278.13
2023-06-11T04:37:46.826Z,101282.41
2023-06-11T04:40:20.680Z,101290.84
2023-06-11T04:42:48.168Z,101273.69
2023-06-11T04:45:19.570Z,101268.50
2023-06-11T04:47:47.842Z,101268.56
2023-06-11T04:50:22.097Z,101272.59
2023-06-11T04:52:53.693Z,101284.06
2023-06-11T04:55:25.929Z,101272.78
2023-06-11T04:57:56.071Z,101279.03
2023-06-11T05:00:24.286Z,101276.38
2023-06-11T05:02:53.017Z,101280.97
2023-06-11T05:05:20.333Z,101278.59
2023-06-11T05:07:47.312Z,101224.69
2023-06-11T05:10:16.595Z,101283.47
2023-06-11T05:12:43.777Z,101276.59
2023-06-11T05:15:11.687Z,101289.34
2023-06-11T05:17:39.321Z,101278.59
2023-06-11T05:20:08.950Z,101278.03
2023-06-11T05:22:36.399Z,101288.84
2023-06-11T05:25:03.631Z,101277.31
2023-06-11T05:27:30.907Z,101278.63
2023-06-11T05:30:00.812Z,101285.88
2023-06-11T05:32:32.237Z,101296.94
2023-06-11T05:35:00.736Z,101292.34
2023-06-11T05:37:27.748Z,101268.97
2023-06-11T05:39:54.901Z,101293.59
2023-06-11T05:42:23.388Z,101293.50
2023-06-11T05:44:50.411Z,101295.00
2023-06-11T05:47:17.538Z,101291.94
2023-06-11T05:49:45.475Z,101293.66
2023-06-11T05:52:12.485Z,101293.63
2023-06-11T05:54:39.465Z,101298.28
2023-06-11T05:57:11.829Z,101300.16
2023-06-11T05:59:38.818Z,101305.63
2023-06-11T06:02:06.653Z,101304.16
2023-06-11T06:04:33.782Z,101295.50
2023-06-11T06:07:00.787Z,101291.66
2023-06-11T06:09:27.742Z,101305.75
2023-06-11T06:11:55.610Z,101305.78
2023-06-11T06:14:23.565Z,101303.38
2023-06-11T06:16:51.906Z,101304.59
2023-06-11T06:19:24.268Z,101300.81
2023-06-11T06:21:51.626Z,101288.66
2023-06-11T06:24:19.702Z,101294.34
2023-06-11T06:26:46.786Z,101305.50
2023-06-11T06:29:14.378Z,101299.44
2023-06-11T06:31:42.171Z,101302.31
2023-06-11T06:34:09.519Z,101296.66
2023-06-11T06:36:40.017Z,101300.75
2023-06-11T06:39:08.135Z,101299.53
2023-06-11T06:41:35.153Z,101299.88
2023-06-11T06:44:08.611Z,101300.84
2023-06-11T06:51:31.316Z,101309.59
2023-06-11T06:53:58.449Z,101316.88
2023-06-11T06:56:25.888Z,101303.25
2023-06-11T06:58:52.863Z,101289.31
2023-06-11T07:01:23.025Z,101307.50
2023-06-11T07:03:50.509Z,101312.59
2023-06-11T07:06:19.190Z,101305.50
2023-06-11T07:08:46.236Z,101308.22
2023-06-11T07:11:16.212Z,101311.91
2023-06-11T07:13:45.684Z,101307.88
2023-06-11T07:16:12.891Z,101295.25
2023-06-11T07:18:43.855Z,101316.88
2023-06-11T07:21:10.980Z,101318.72
2023-06-11T07:23:38.186Z,101329.34
2023-06-11T07:26:06.207Z,101316.84
2023-06-11T07:28:33.288Z,101317.69
2023-06-11T07:31:01.154Z,101326.47
2023-06-11T07:33:29.446Z,101312.88
2023-06-11T07:35:58.051Z,101311.50
2023-06-11T07:38:25.597Z,101308.66
2023-06-11T07:40:53.333Z,101309.09
2023-06-11T07:43:23.135Z,101297.59
2023-06-11T07:45:50.150Z,101305.16
2023-06-11T07:48:18.196Z,101318.16
2023-06-11T07:50:46.488Z,101312.72
2023-06-11T07:53:15.727Z,101314.22
2023-06-11T07:55:43.246Z,101306.63
2023-06-11T07:58:10.179Z,101309.44
2023-06-11T08:00:37.142Z,101310.03
2023-06-11T08:03:04.246Z,101307.41
2023-06-11T08:05:31.453Z,101300.09
2023-06-11T08:07:58.497Z,101310.41
2023-06-11T08:10:25.726Z,101303.31
2023-06-11T08:12:52.805Z,101308.50
2023-06-11T08:15:20.741Z,101311.19
2023-06-11T08:17:47.773Z,101307.25
2023-06-11T08:20:17.394Z,101305.50
2023-06-11T08:22:44.442Z,101298.31
2023-06-11T08:25:12.204Z,101306.19
2023-06-11T08:27:39.181Z,101300.50
2023-06-11T08:30:07.901Z,101312.03
2023-06-11T08:32:35.016Z,101300.84
2023-06-11T08:35:02.109Z,101308.88
2023-06-11T08:37:29.093Z,101308.97
2023-06-11T08:39:56.157Z,101309.84
2023-06-11T08:42:23.137Z,101304.31
2023-06-11T08:44:50.362Z,101309.00
2023-06-11T08:47:17.991Z,101308.41
2023-06-11T08:49:46.215Z,101298.88
2023-06-11T08:52:14.882Z,101297.19
2023-06-11T08:54:41.906Z,101309.75
2023-06-11T08:57:09.727Z,101311.41
2023-06-11T08:59:36.735Z,101290.50
2023-06-11T09:02:04.696Z,101303.03
2023-06-11T09:04:31.947Z,101302.13
2023-06-11T09:07:02.106Z,101302.44
2023-06-11T09:09:29.264Z,101299.38
2023-06-11T09:11:56.188Z,101296.09
2023-06-11T09:14:23.267Z,101294.63
2023-06-11T09:16:50.405Z,101302.41
2023-06-11T09:19:21.665Z,101292.53
2023-06-11T09:21:55.839Z,101288.34
2023-06-11T09:24:25.107Z,101295.75
2023-06-11T09:26:59.558Z,101282.25
2023-06-11T09:29:28.562Z,101267.91
2023-06-11T09:32:32.004Z,101290.25
2023-06-11T09:34:57.703Z,101270.75
2023-06-11T09:37:24.816Z,101288.75
2023-06-11T09:39:51.953Z,101271.16
2023-06-11T09:42:27.431Z,101287.00
2023-06-11T09:45:02.197Z,101290.28
2023-06-11T09:47:31.750Z,101295.56
2023-06-11T09:49:59.790Z,101280.28
2023-06-11T09:52:30.421Z,101297.34
2023-06-11T09:54:58.823Z,101294.97
2023-06-11T09:57:27.768Z,101294.00
2023-06-11T09:59:55.211Z,101292.03
2023-06-11T10:02:22.256Z,101291.63
2023-06-11T10:04:49.427Z,101293.88
2023-06-11T10:07:17.971Z,101281.81
2023-06-11T10:09:47.218Z,101294.41
2023-06-11T10:12:17.443Z,101295.59
2023-06-11T10:14:52.940Z,101279.41
2023-06-11T10:17:23.560Z,101295.16
2023-06-11T10:19:52.836Z,101270.66
2023-06-11T10:22:34.489Z,101292.06
2023-06-11T10:25:03.696Z,101265.69
2023-06-11T10:27:43.608Z,101276.78
2023-06-11T10:30:11.398Z,101274.16
2023-06-11T10:32:54.998Z,101286.53
2023-06-11T10:35:25.381Z,101290.81
2023-06-11T10:38:05.755Z,101287.28
2023-06-11T10:40:34.009Z,101284.63
2023-06-11T10:43:01.009Z,101291.66
2023-06-11T10:45:37.174Z,101290.09
2023-06-11T10:48:04.552Z,101297.72
2023-06-11T10:50:33.133Z,101289.72
2023-06-11T10:53:07.471Z,101298.19
2023-06-11T10:55:35.431Z,101257.25
2023-06-11T10:58:03.043Z,101285.00
2023-06-11T11:00:35.214Z,101296.41
2023-06-11T11:03:05.561Z,101282.66
2023-06-11T11:05:33.154Z,101274.59
2023-06-11T11:08:03.079Z,101273.06
2023-06-11T11:10:30.413Z,101279.84
2023-06-11T11:12:57.422Z,101282.22
2023-06-11T11:15:24.404Z,101277.84
2023-06-11T11:17:52.217Z,101268.78
2023-06-11T11:20:20.985Z,101264.25
2023-06-11T11:22:55.875Z,101271.53
2023-06-11T11:25:25.054Z,101266.44
2023-06-11T11:27:52.053Z,101268.81
2023-06-11T11:30:19.334Z,101268.78
2023-06-11T11:32:46.864Z,101265.25
2023-06-11T11:35:16.096Z,101238.81
2023-06-11T11:37:46.278Z,101257.81
2023-06-11T11:40:14.244Z,101253.75
2023-06-11T11:42:47.678Z,101265.56
2023-06-11T11:45:17.435Z,101253.22
2023-06-11T11:47:52.304Z,101233.03
2023-06-11T11:50:26.933Z,101255.84
2023-06-11T11:53:10.194Z,101242.63
2023-06-11T11:58:13.765Z,101247.69
2023-06-11T12:00:54.075Z,101250.75
2023-06-11T12:03:23.434Z,101249.38
2023-06-11T12:06:06.371Z,101249.28
2023-06-11T12:08:34.843Z,101239.31
2023-06-11T12:11:04.865Z,101255.78
2023-06-11T12:13:32.161Z,101247.31
2023-06-11T12:16:02.934Z,101244.50
2023-06-11T12:18:31.395Z,101238.81
2023-06-11T12:20:58.406Z,101236.16
2023-06-11T12:23:25.418Z,101245.44
2023-06-11T12:25:52.419Z,101241.06
2023-06-11T12:28:19.672Z,101241.63
2023-06-11T12:30:47.075Z,101207.53
2023-06-11T12:33:14.190Z,101231.91
2023-06-11T12:35:41.413Z,101212.72
2023-06-11T12:38:08.420Z,101241.34
2023-06-11T12:40:35.413Z,101230.34
2023-06-11T12:43:02.415Z,101232.63
2023-06-11T12:45:31.738Z,101235.16
2023-06-11T12:47:58.861Z,101228.41
2023-06-11T12:50:27.226Z,101240.03
2023-06-11T12:52:56.107Z,101214.19
2023-06-11T12:55:25.302Z,101238.38
2023-06-11T12:57:52.385Z,101232.03
2023-06-11T13:00:19.762Z,101201.06
2023-06-11T13:02:46.850Z,101242.91
2023-06-11T13:05:13.856Z,101242.53
2023-06-11T13:07:40.837Z,101245.44
2023-06-11T13:10:09.002Z,101226.19
2023-06-11T13:12:36.219Z,101251.66
2023-06-11T13:15:03.316Z,101242.16
2023-06-11T13:17:30.438Z,101228.63
2023-06-11T13:19:57.478Z,101233.34
2023-06-11T13:22:24.422Z,101234.03
2023-06-11T13:24:51.409Z,101229.69
2023-06-11T13:27:18.457Z,101232.97
2023-06-11T13:29:45.495Z,101228.63
2023-06-11T13:32:12.735Z,101235.00
2023-06-11T13:34:39.902Z,101233.84
2023-06-11T13:37:07.157Z,101220.28
2023-06-11T13:39:34.394Z,101234.44
2023-06-11T13:42:01.709Z,101235.41
2023-06-11T13:44:28.758Z,101225.59
2023-06-11T13:46:55.842Z,101233.72
2023-06-11T13:49:24.201Z,101228.22
2023-06-11T13:51:52.855Z,101199.50
2023-06-11T13:54:19.868Z,101221.69
2023-06-11T13:56:47.489Z,101231.28
2023-06-11T13:59:14.673Z,101229.66
2023-06-11T14:01:41.618Z,101225.09
2023-06-11T14:04:09.019Z,101225.44
2023-06-11T14:06:37.826Z,101209.56
2023-06-11T14:09:05.337Z,101239.34
2023-06-11T14:11:32.524Z,101234.59
2023-06-11T14:14:00.245Z,101231.28
2023-06-11T14:16:28.492Z,101205.38
2023-06-11T14:18:55.678Z,101228.13
2023-06-11T14:21:22.705Z,101227.53
2023-06-11T14:23:49.705Z,101229.34
2023-06-11T14:26:16.699Z,101227.66
2023-06-11T14:28:43.662Z,101236.38
2023-06-11T14:31:12.174Z,101223.63
2023-06-11T14:33:39.168Z,101213.28
2023-06-11T14:36:07.286Z,101229.25
2023-06-11T14:38:34.619Z,101229.47
2023-06-11T14:41:01.845Z,101222.91
2023-06-11T14:43:29.045Z,101209.31
2023-06-11T14:45:56.029Z,101212.13
2023-06-11T14:48:22.992Z,101217.00
2023-06-11T14:50:50.014Z,101212.34
2023-06-11T14:53:17.035Z,101211.94
2023-06-11T14:55:44.460Z,101208.44
2023-06-11T14:58:11.530Z,101202.69
2023-06-11T15:00:38.488Z,101202.06
2023-06-11T15:03:05.626Z,101203.28
2023-06-11T15:05:32.720Z,101215.63
2023-06-11T15:07:59.756Z,101219.88
2023-06-11T15:10:28.253Z,101206.53
2023-06-11T15:12:56.861Z,101202.88
2023-06-11T15:15:24.083Z,101199.06
2023-06-11T15:17:51.183Z,101182.09
2023-06-11T15:20:18.362Z,101174.94
2023-06-11T15:22:45.343Z,101194.22
2023-06-11T15:25:12.579Z,101194.69
2023-06-11T15:27:40.868Z,101172.28
2023-06-11T15:30:08.522Z,101187.31
2023-06-11T15:32:35.660Z,101183.31
2023-06-11T15:35:03.048Z,101179.31
2023-06-11T15:37:30.103Z,101173.38
2023-06-11T15:39:57.128Z,101170.69
2023-06-11T15:42:24.103Z,101180.03
2023-06-11T15:44:51.119Z,101171.19
2023-06-11T15:47:18.468Z,101160.59
2023-06-11T15:49:45.656Z,101170.41
2023-06-11T15:52:12.616Z,101161.19
2023-06-11T15:54:39.649Z,101146.66
2023-06-11T15:57:07.506Z,101162.28
2023-06-11T15:59:34.574Z,101161.06
2023-06-11T16:02:02.386Z,101153.53
2023-06-11T16:04:32.824Z,101170.00
2023-06-11T16:07:06.167Z,101153.53
2023-06-11T16:09:34.336Z,101154.28
2023-06-11T16:12:02.668Z,101139.56
2023-06-11T16:14:29.638Z,101159.19
2023-06-11T16:16:58.329Z,101168.38
2023-06-11T16:19:26.042Z,101165.81
2023-06-11T16:21:53.140Z,101163.13
2023-06-11T16:24:20.136Z,101170.13
2023-06-11T16:26:47.311Z,101174.44
2023-06-11T16:29:14.690Z,101156.88
2023-06-11T16:31:43.731Z,101176.03
2023-06-11T16:34:11.148Z,101169.13
2023-06-11T16:36:39.480Z,101148.66
2023-06-11T16:39:21.761Z,101158.31
2023-06-11T16:41:59.169Z,101162.19
2023-06-11T16:44:26.277Z,101136.97
2023-06-11T16:46:53.371Z,101164.53
2023-06-11T16:49:21.098Z,101157.97
2023-06-11T16:51:48.192Z,101150.63
2023-06-11T16:54:16.696Z,101136.81
2023-06-11T16:56:51.468Z,101142.78
2023-06-11T16:59:18.442Z,101153.72
2023-06-11T17:01:45.357Z,101146.31
2023-06-11T17:04:12.556Z,101136.78
2023-06-11T17:06:39.702Z,101133.56
2023-06-11T17:09:06.693Z,101152.88
2023-06-11T17:11:33.700Z,101155.72
2023-06-11T17:14:00.696Z,101138.09
2023-06-11T17:16:27.747Z,101127.28
2023-06-11T17:18:57.804Z,101140.06
2023-06-11T17:21:24.754Z,101146.63
2023-06-11T17:23:51.812Z,101140.19
2023-06-11T17:26:18.854Z,101147.00
2023-06-11T17:28:45.880Z,101142.28
2023-06-11T17:31:13.910Z,101142.97
2023-06-11T17:33:41.142Z,101144.91
2023-06-11T17:36:09.253Z,101138.13
2023-06-11T17:38:36.223Z,101127.06
2023-06-11T17:41:03.180Z,101143.84
2023-06-11T17:43:30.219Z,101133.88
2023-06-11T17:45:57.265Z,101141.44
2023-06-11T17:48:24.435Z,101118.72
2023-06-11T17:50:51.408Z,101135.47
2023-06-11T17:53:18.369Z,101137.16
2023-06-11T17:55:47.503Z,101117.63
2023-06-11T17:58:15.907Z,101127.41
2023-06-11T18:00:42.939Z,101132.34
2023-06-11T18:03:10.225Z,101139.44
2023-06-11T18:05:37.151Z,101133.53
2023-06-11T18:08:04.255Z,101121.28
2023-06-11T18:10:31.246Z,101142.16
2023-06-11T18:12:58.193Z,101140.06
2023-06-11T18:15:32.939Z,101121.53
2023-06-11T18:18:04.339Z,101128.41
2023-06-11T18:20:32.691Z,101129.88
2023-06-11T18:23:00.000Z,101115.72
2023-06-11T18:25:28.328Z,101141.47
2023-06-11T18:27:55.442Z,101138.97
2023-06-11T18:30:22.834Z,101138.75
2023-06-11T18:32:50.290Z,101130.72
2023-06-11T18:35:21.375Z,101142.78
2023-06-11T18:37:48.455Z,101140.66
2023-06-11T18:40:16.417Z,101137.31
2023-06-11T18:42:43.550Z,101133.69
2023-06-11T18:45:11.245Z,101140.50
2023-06-11T18:47:40.338Z,101146.88
2023-06-11T18:50:10.705Z,101133.91
2023-06-11T18:52:38.703Z,101139.03
2023-06-11T18:55:06.245Z,101148.41
2023-06-11T18:57:36.077Z,101136.75
2023-06-11T19:00:04.288Z,101138.25
2023-06-11T19:02:31.367Z,101134.44
2023-06-11T19:04:59.424Z,101144.22
2023-06-11T19:07:26.857Z,101143.81
2023-06-11T19:09:53.878Z,101144.28
2023-06-11T19:12:20.877Z,101154.31
2023-06-11T19:14:47.831Z,101152.19
2023-06-11T19:17:15.010Z,101142.63
2023-06-11T19:19:42.154Z,101155.00
2023-06-11T19:22:09.099Z,101162.63
2023-06-11T19:24:36.500Z,101158.38
2023-06-11T19:27:03.604Z,101159.03
2023-06-11T19:29:32.221Z,101138.19
2023-06-11T19:31:59.298Z,101160.28
2023-06-11T19:34:26.284Z,101164.31
2023-06-11T19:36:53.238Z,101153.69
2023-06-11T19:39:20.258Z,101161.34
2023-06-11T19:41:47.165Z,101161.50
2023-06-11T19:44:14.451Z,101158.75
2023-06-11T19:46:41.543Z,101161.91
2023-06-11T19:49:08.655Z,101143.59
2023-06-11T19:51:35.678Z,101157.41
2023-06-11T19:54:02.657Z,101132.91
2023-06-11T19:56:29.700Z,101157.78
2023-06-11T19:58:57.498Z,101155.38
2023-06-11T20:01:25.184Z,101164.28
2023-06-11T20:03:52.193Z,101158.53
2023-06-11T20:06:19.117Z,101153.63
2023-06-11T20:08:46.242Z,101148.25
2023-06-11T20:11:13.201Z,101158.88
2023-06-11T20:13:45.620Z,101163.91
2023-06-11T20:16:13.355Z,101171.06
2023-06-11T20:18:41.443Z,101169.75
2023-06-11T20:21:08.956Z,101153.03
2023-06-11T20:23:36.260Z,101159.16
2023-06-11T20:26:03.995Z,101156.28
2023-06-11T20:28:31.272Z,101183.69
2023-06-11T20:30:58.275Z,101160.84
2023-06-11T20:33:25.935Z,101190.78
2023-06-11T20:35:53.012Z,101192.16
2023-06-11T20:38:20.123Z,101191.84
2023-06-11T20:40:47.141Z,101191.28
2023-06-11T20:43:14.188Z,101204.81
2023-06-11T20:45:48.555Z,101202.44
2023-06-11T20:48:25.091Z,101200.84
2023-06-11T20:50:52.482Z,101192.91
2023-06-11T20:53:33.289Z,101215.31
2023-06-11T20:56:02.011Z,101186.72
2023-06-11T20:58:28.986Z,101207.22
2023-06-11T21:00:56.188Z,101214.84
2023-06-11T21:03:23.508Z,101194.50
2023-06-11T21:05:51.221Z,101226.28
2023-06-11T21:08:21.714Z,101205.72
2023-06-11T21:10:49.020Z,101201.56
2023-06-11T21:13:16.336Z,101202.31
2023-06-11T21:15:43.927Z,101192.84
2023-06-11T21:18:13.949Z,101196.63
2023-06-11T21:20:41.223Z,101213.03
2023-06-11T21:23:08.286Z,101210.38
2023-06-11T21:25:35.781Z,101216.06
2023-06-11T21:28:02.821Z,101211.88
2023-06-11T21:30:29.832Z,101216.25
2023-06-11T21:32:56.934Z,101224.84
2023-06-11T21:35:23.954Z,101213.72
2023-06-11T21:37:50.891Z,101214.13
2023-06-11T21:40:18.090Z,101210.88
2023-06-11T21:42:45.089Z,101199.53
2023-06-11T21:45:12.069Z,101207.78
2023-06-11T21:47:39.216Z,101203.09
2023-06-11T21:50:07.030Z,101224.91
2023-06-11T21:52:38.167Z,101224.81
2023-06-11T21:55:08.658Z,101228.44
2023-06-11T21:57:35.949Z,101223.16
2023-06-11T22:00:07.765Z,101201.44
2023-06-11T22:02:55.030Z,101226.88
2023-06-11T22:05:22.059Z,101227.44
2023-06-11T22:07:49.882Z,101209.97
2023-06-11T22:10:16.868Z,101224.41
2023-06-11T22:12:44.465Z,101230.53
2023-06-11T22:15:13.857Z,101241.03
2023-06-11T22:17:41.178Z,101230.00
2023-06-11T22:20:11.485Z,101233.03
2023-06-11T22:22:41.818Z,101218.91
2023-06-11T22:25:11.434Z,101226.84
2023-06-11T22:27:41.641Z,101231.41
2023-06-11T22:30:10.766Z,101206.84
2023-06-11T22:32:38.151Z,101242.25
2023-06-11T22:35:05.777Z,101223.25
2023-06-11T22:37:34.998Z,101229.59
2023-06-11T22:40:03.725Z,101232.63
2023-06-11T22:42:30.753Z,101224.09
2023-06-11T22:44:57.693Z,101223.38
2023-06-11T22:47:24.721Z,101216.09
2023-06-11T22:49:51.746Z,101223.28
2023-06-11T22:52:19.405Z,101232.34
2023-06-11T22:54:46.940Z,101209.91
2023-06-11T22:57:13.912Z,101221.06
2023-06-11T22:59:40.877Z,101231.81
2023-06-11T23:02:08.113Z,101220.53
2023-06-11T23:04:35.112Z,101238.53
2023-06-11T23:07:03.517Z,101225.84
2023-06-11T23:09:30.971Z,101221.59
2023-06-11T23:11:57.962Z,101212.31
2023-06-11T23:14:24.967Z,101225.34
2023-06-11T23:16:52.680Z,101222.75
2023-06-11T23:19:23.681Z,101209.75
2023-06-11T23:21:51.879Z,101227.91
2023-06-11T23:24:21.863Z,101221.91
2023-06-11T23:26:51.242Z,101225.50
2023-06-11T23:29:18.305Z,101214.22
2023-06-11T23:31:45.249Z,101214.53
2023-06-11T23:34:13.733Z,101216.59
2023-06-11T23:36:41.337Z,101214.31
2023-06-11T23:39:12.218Z,101195.66
2023-06-11T23:41:39.183Z,101204.00
2023-06-11T23:44:06.130Z,101219.44
2023-06-11T23:46:37.106Z,101198.91
2023-06-11T23:49:04.336Z,101221.44
2023-06-11T23:51:33.295Z,101223.50
2023-06-11T23:54:00.854Z,101217.16
2023-06-11T23:56:27.854Z,101209.28
2023-06-11T23:58:54.881Z,101214.56
